createdAt,value
2024-02-13T00:01:37.858Z,7.87
2024-02-13T00:04:37.786Z,9.53
2024-02-13T00:07:37.873Z,10.73
2024-02-13T00:10:37.762Z,10.13
2024-02-13T00:13:37.540Z,10.47
2024-02-13T00:22:37.631Z,9.13
2024-02-13T00:25:37.482Z,9.13
2024-02-13T00:28:37.563Z,9.13
2024-02-13T00:31:39.136Z,9.67
2024-02-13T00:34:38.098Z,9.87
2024-02-13T00:37:37.749Z,10.47
2024-02-13T00:40:37.518Z,10.93
2024-02-13T00:43:37.466Z,10.47
2024-02-13T00:46:37.860Z,10.53
2024-02-13T00:49:38.324Z,10.53
2024-02-13T00:52:37.700Z,10.53
2024-02-13T00:55:37.370Z,10.67
2024-02-13T00:58:37.519Z,10.73
2024-02-13T01:01:37.720Z,11.40
2024-02-13T01:04:37.666Z,11.20
2024-02-13T01:07:37.524Z,11.27
2024-02-13T01:10:37.473Z,10.87
2024-02-13T01:13:37.425Z,11.33
2024-02-13T01:16:37.632Z,11.00
2024-02-13T01:19:38.266Z,11.67
2024-02-13T01:22:37.532Z,12.07
2024-02-13T01:25:37.466Z,11.93
2024-02-13T01:28:37.445Z,11.53
2024-02-13T01:31:37.782Z,12.33
2024-02-13T01:34:38.311Z,12.00
2024-02-13T01:37:37.670Z,11.87
2024-02-13T01:40:37.494Z,12.93
2024-02-13T01:43:37.374Z,13.00
2024-02-13T01:46:37.429Z,12.20
2024-02-13T01:49:38.575Z,12.93
2024-02-13T01:52:37.630Z,13.27
2024-02-13T01:55:37.534Z,13.20
2024-02-13T01:58:37.653Z,12.53
2024-02-13T02:01:37.663Z,14.93
2024-02-13T02:04:37.890Z,13.73
2024-02-13T02:07:38.078Z,14.07
2024-02-13T02:10:37.730Z,14.33
2024-02-13T02:13:37.511Z,15.40
2024-02-13T02:16:37.573Z,15.73
2024-02-13T02:19:38.477Z,15.13
2024-02-13T02:22:37.437Z,14.47
2024-02-13T02:25:37.524Z,14.33
2024-02-13T02:28:37.451Z,14.40
2024-02-13T02:31:37.443Z,14.87
2024-02-13T02:34:38.491Z,14.67
2024-02-13T02:37:37.672Z,14.87
2024-02-13T02:40:37.737Z,14.53
2024-02-13T02:43:37.603Z,16.00
2024-02-13T02:46:37.484Z,15.20
2024-02-13T02:49:38.133Z,15.80
2024-02-13T02:52:37.491Z,16.07
2024-02-13T02:55:37.563Z,15.33
2024-02-13T02:58:37.892Z,15.73
2024-02-13T03:01:38.050Z,16.40
2024-02-13T03:04:42.486Z,16.07
2024-02-13T03:07:37.860Z,16.47
2024-02-13T03:10:37.599Z,16.47
2024-02-13T03:13:37.607Z,15.73
2024-02-13T03:16:37.469Z,15.80
2024-02-13T03:19:38.533Z,14.73
2024-02-13T03:22:37.523Z,14.87
2024-02-13T03:25:37.789Z,14.93
2024-02-13T03:28:37.412Z,15.20
2024-02-13T03:43:37.854Z,15.73
2024-02-13T03:46:37.392Z,16.47
2024-02-13T03:49:38.400Z,16.40
2024-02-13T03:52:37.753Z,16.27
2024-02-13T03:55:37.518Z,16.47
2024-02-13T03:58:37.433Z,16.87
2024-02-13T04:01:37.857Z,17.20
2024-02-13T04:04:37.677Z,16.00
2024-02-13T04:07:37.948Z,16.27
2024-02-13T04:10:37.638Z,15.87
2024-02-13T04:13:37.504Z,16.60
2024-02-13T04:16:37.532Z,16.13
2024-02-13T04:19:38.189Z,17.27
2024-02-13T04:22:37.635Z,17.27
2024-02-13T04:25:37.459Z,16.00
2024-02-13T04:28:37.419Z,15.80
2024-02-13T04:31:37.742Z,16.33
2024-02-13T04:34:38.867Z,14.27
2024-02-13T04:37:37.533Z,15.13
2024-02-13T04:40:37.769Z,15.07
2024-02-13T04:43:37.527Z,15.00
2024-02-13T04:46:37.492Z,15.20
2024-02-13T04:49:38.194Z,17.33
2024-02-13T04:52:37.730Z,16.47
2024-02-13T04:55:37.740Z,15.40
2024-02-13T04:58:37.614Z,15.67
2024-02-13T05:01:37.656Z,15.00
2024-02-13T05:04:38.578Z,15.07
2024-02-13T05:07:38.000Z,16.47
2024-02-13T05:10:37.644Z,15.13
2024-02-13T05:13:37.563Z,15.87
2024-02-13T05:16:37.420Z,15.93
2024-02-13T05:19:38.906Z,15.27
2024-02-13T05:22:37.609Z,16.40
2024-02-13T05:25:37.634Z,15.53
2024-02-13T05:28:37.598Z,16.67
2024-02-13T05:31:38.067Z,15.93
2024-02-13T05:34:38.427Z,17.73
2024-02-13T05:37:37.476Z,16.53
2024-02-13T05:40:38.435Z,15.67
2024-02-13T05:43:37.386Z,15.27
2024-02-13T05:46:37.434Z,14.80
2024-02-13T05:49:37.975Z,16.20
2024-02-13T06:22:37.543Z,14.93
2024-02-13T06:25:37.658Z,15.07
2024-02-13T06:28:37.394Z,15.47
2024-02-13T06:31:37.788Z,15.60
2024-02-13T06:34:38.670Z,15.07
2024-02-13T06:37:37.684Z,15.93
2024-02-13T06:40:37.853Z,15.27
2024-02-13T06:43:42.451Z,14.60
2024-02-13T06:46:37.501Z,13.93
2024-02-13T06:49:39.105Z,14.27
2024-02-13T06:52:37.814Z,14.53
2024-02-13T06:55:39.705Z,14.53
2024-02-13T06:58:37.546Z,14.07
2024-02-13T07:01:42.823Z,14.20
2024-02-13T07:04:37.646Z,13.27
2024-02-13T07:10:38.338Z,12.73
2024-02-13T07:13:37.388Z,12.60
2024-02-13T07:16:40.629Z,13.13
2024-02-13T07:19:40.018Z,12.47
2024-02-13T07:22:48.208Z,11.80
2024-02-13T07:25:37.452Z,11.33
2024-02-13T07:28:40.594Z,11.40
2024-02-13T07:31:37.857Z,11.80
2024-02-13T07:34:38.953Z,11.53
2024-02-13T07:37:37.595Z,11.53
2024-02-13T07:40:37.795Z,11.67
2024-02-13T07:43:37.339Z,10.93
2024-02-13T07:46:37.667Z,11.13
2024-02-13T07:49:39.098Z,12.53
2024-02-13T07:52:37.479Z,10.73
2024-02-13T07:55:37.544Z,11.27
2024-02-13T07:58:37.508Z,11.53
2024-02-13T08:01:37.731Z,10.20
2024-02-13T08:04:37.600Z,10.27
2024-02-13T08:07:37.884Z,9.80
2024-02-13T08:10:37.516Z,12.33
2024-02-13T08:13:37.928Z,11.20
2024-02-13T08:16:37.662Z,10.13
2024-02-13T08:19:38.057Z,11.13
2024-02-13T08:22:37.536Z,10.60
2024-02-13T08:25:39.966Z,10.27
2024-02-13T08:28:37.733Z,9.93
2024-02-13T08:31:37.698Z,9.60
2024-02-13T08:34:39.480Z,10.20
2024-02-13T08:37:37.675Z,9.73
2024-02-13T08:40:38.268Z,10.40
2024-02-13T08:43:37.722Z,9.13
2024-02-13T08:46:37.491Z,10.13
2024-02-13T08:49:39.863Z,9.53
2024-02-13T08:52:42.416Z,11.00
2024-02-13T08:55:37.598Z,10.27
2024-02-13T08:58:37.477Z,10.20
2024-02-13T09:01:38.649Z,10.13
2024-02-13T09:04:37.623Z,9.93
2024-02-13T09:07:39.796Z,9.87
2024-02-13T09:10:37.715Z,9.80
2024-02-13T09:13:37.737Z,9.13
2024-02-13T09:16:37.480Z,9.87
2024-02-13T09:19:38.627Z,10.47
2024-02-13T09:22:37.490Z,9.47
2024-02-13T09:25:37.526Z,9.47
2024-02-13T09:28:37.590Z,9.33
2024-02-13T09:31:37.638Z,8.93
2024-02-13T09:34:38.438Z,8.87
2024-02-13T09:37:37.820Z,7.87
2024-02-13T09:40:38.557Z,9.00
2024-02-13T09:43:39.734Z,8.80
2024-02-13T09:46:37.510Z,9.07
2024-02-13T09:49:41.516Z,9.33
2024-02-13T09:52:37.516Z,9.33
2024-02-13T09:55:38.403Z,8.53
2024-02-13T09:58:37.522Z,8.33
2024-02-13T10:01:37.985Z,8.67
2024-02-13T10:04:37.952Z,8.13
2024-02-13T10:07:39.254Z,8.07
2024-02-13T10:10:37.486Z,8.60
2024-02-13T10:13:38.023Z,7.67
2024-02-13T10:16:37.715Z,8.53
2024-02-13T10:19:39.087Z,8.60
2024-02-13T10:22:37.474Z,7.93
2024-02-13T10:25:41.449Z,9.00
2024-02-13T10:28:37.561Z,8.27
2024-02-13T10:31:38.915Z,8.07
2024-02-13T10:34:37.983Z,8.60
2024-02-13T10:37:37.769Z,9.07
2024-02-13T10:40:37.536Z,8.80
2024-02-13T10:43:38.698Z,8.80
2024-02-13T10:46:37.560Z,8.87
2024-02-13T10:49:39.344Z,8.47
2024-02-13T10:52:37.571Z,9.40
2024-02-13T10:55:39.140Z,8.07
2024-02-13T10:58:49.732Z,8.07
2024-02-13T11:01:40.310Z,8.67
2024-02-13T11:04:38.315Z,11.47
2024-02-13T11:07:40.112Z,8.00
2024-02-13T11:10:37.567Z,8.67
2024-02-13T11:13:38.093Z,8.20
2024-02-13T11:16:37.570Z,7.87
2024-02-13T11:19:40.268Z,7.53
2024-02-13T11:22:37.524Z,7.60
2024-02-13T11:25:39.743Z,10.67
2024-02-13T11:28:50.038Z,8.20
2024-02-13T11:31:40.375Z,10.53
2024-02-13T11:34:39.355Z,8.47
2024-02-13T11:37:39.552Z,8.13
2024-02-13T11:40:37.574Z,8.73
2024-02-13T11:43:37.437Z,9.00
2024-02-13T11:46:37.418Z,7.93
2024-02-13T11:49:40.809Z,7.47
2024-02-13T11:52:37.451Z,7.67
2024-02-13T11:55:37.455Z,8.00
2024-02-13T11:58:37.858Z,8.27
2024-02-13T12:01:39.159Z,8.07
2024-02-13T12:04:38.156Z,7.87
2024-02-13T12:07:37.722Z,7.93
2024-02-13T12:10:37.558Z,8.00
2024-02-13T12:13:37.423Z,8.07
2024-02-13T12:16:37.521Z,8.07
2024-02-13T12:19:38.715Z,7.93
2024-02-13T12:22:37.590Z,8.13
2024-02-13T12:25:37.494Z,8.27
2024-02-13T12:28:37.845Z,8.27
2024-02-13T12:31:37.597Z,7.87
2024-02-13T12:34:39.527Z,7.73
2024-02-13T12:37:37.724Z,7.20
2024-02-13T12:40:37.886Z,7.53
2024-02-13T12:43:39.705Z,7.07
2024-02-13T12:46:37.631Z,7.80
2024-02-13T12:49:45.287Z,6.73
2024-02-13T12:52:37.913Z,7.93
2024-02-13T12:55:38.510Z,7.87
2024-02-13T12:58:37.594Z,7.67
2024-02-13T13:01:38.292Z,7.73
2024-02-13T13:04:37.766Z,7.33
2024-02-13T13:07:37.810Z,7.27
2024-02-13T13:10:47.992Z,7.00
2024-02-13T13:13:38.410Z,8.27
2024-02-13T13:16:46.919Z,7.33
2024-02-13T13:19:41.862Z,7.53
2024-02-13T13:22:37.603Z,7.07
2024-02-13T13:25:37.672Z,6.87
2024-02-13T13:28:37.869Z,7.53
2024-02-13T13:31:38.243Z,8.33
2024-02-13T13:34:39.150Z,7.73
2024-02-13T13:37:38.180Z,7.53
2024-02-13T13:40:37.849Z,8.80
2024-02-13T13:43:38.304Z,8.07
2024-02-13T13:46:37.487Z,8.20
2024-02-13T13:49:39.435Z,8.33
2024-02-13T13:52:37.600Z,7.60
2024-02-13T13:55:38.076Z,7.93
2024-02-13T13:58:37.548Z,8.40
2024-02-13T14:01:37.772Z,8.47
2024-02-13T14:04:37.681Z,8.60
2024-02-13T14:07:38.274Z,8.80
2024-02-13T14:10:37.518Z,8.27
2024-02-13T14:13:37.586Z,9.07
2024-02-13T14:16:37.428Z,8.33
2024-02-13T14:19:38.308Z,9.27
2024-02-13T14:22:37.519Z,8.27
2024-02-13T14:25:37.608Z,7.33
2024-02-13T14:28:37.543Z,8.27
2024-02-13T14:31:38.172Z,8.20
2024-02-13T14:34:39.252Z,6.67
2024-02-13T14:37:38.558Z,7.93
2024-02-13T14:40:37.612Z,7.00
2024-02-13T14:43:37.476Z,7.67
2024-02-13T14:46:37.567Z,6.87
2024-02-13T14:49:38.488Z,6.53
2024-02-13T14:52:37.814Z,6.80
2024-02-13T14:55:37.586Z,6.87
2024-02-13T15:01:41.713Z,7.20
2024-02-13T15:04:37.917Z,6.47
2024-02-13T15:07:38.343Z,7.53
2024-02-13T15:10:37.656Z,7.20
2024-02-13T15:13:37.421Z,7.13
2024-02-13T15:16:38.069Z,7.07
2024-02-13T15:19:39.570Z,6.13
2024-02-13T15:22:37.664Z,7.80
2024-02-13T15:25:37.558Z,8.27
2024-02-13T15:28:37.536Z,7.07
2024-02-13T15:31:40.412Z,6.93
2024-02-13T15:34:38.601Z,7.33
2024-02-13T15:37:38.225Z,6.87
2024-02-13T15:40:37.562Z,7.13
2024-02-13T15:43:37.735Z,6.20
2024-02-13T15:46:37.572Z,6.53
2024-02-13T15:49:40.002Z,6.07
2024-02-13T15:52:37.402Z,6.40
2024-02-13T15:55:37.563Z,6.67
2024-02-13T15:58:37.527Z,8.07
2024-02-13T16:01:37.897Z,7.07
2024-02-13T16:04:38.117Z,7.53
2024-02-13T16:07:38.024Z,6.73
2024-02-13T16:10:37.761Z,6.87
2024-02-13T16:13:37.603Z,6.53
2024-02-13T16:16:37.517Z,6.20
2024-02-13T16:19:38.905Z,6.93
2024-02-13T16:22:37.548Z,6.33
2024-02-13T16:25:37.488Z,6.33
2024-02-13T16:28:37.846Z,5.47
2024-02-13T16:31:37.701Z,6.73
2024-02-13T16:34:38.743Z,6.33
2024-02-13T16:37:39.444Z,6.07
2024-02-13T16:40:37.511Z,6.40
2024-02-13T16:43:39.859Z,5.60
2024-02-13T16:46:37.968Z,6.67
2024-02-13T16:49:43.098Z,6.53
2024-02-13T16:52:37.483Z,7.00
2024-02-13T16:55:41.597Z,7.00
2024-02-13T17:04:38.172Z,8.73
2024-02-13T17:07:38.758Z,8.00
2024-02-13T17:10:37.571Z,9.40
2024-02-13T17:13:37.538Z,12.53
2024-02-13T17:16:37.577Z,13.07
2024-02-13T17:19:38.493Z,9.67
2024-02-13T17:22:37.529Z,9.20
2024-02-13T17:25:37.656Z,9.07
2024-02-13T17:28:37.416Z,9.00
2024-02-13T17:31:37.721Z,8.93
2024-02-13T17:34:41.278Z,8.13
2024-02-13T17:37:37.386Z,8.33
2024-02-13T17:40:37.640Z,8.40
2024-02-13T17:43:37.655Z,8.67
2024-02-13T17:46:37.541Z,8.07
2024-02-13T17:49:38.388Z,8.67
2024-02-13T17:52:37.476Z,8.27
2024-02-13T17:55:42.127Z,8.93
2024-02-13T17:58:37.654Z,7.73
2024-02-13T18:01:40.381Z,7.40
2024-02-13T18:04:38.209Z,7.20
2024-02-13T18:31:37.659Z,6.73
2024-02-13T18:34:38.855Z,7.33
2024-02-13T18:37:37.550Z,7.47
2024-02-13T18:49:38.746Z,9.07
2024-02-13T18:52:41.239Z,8.73
2024-02-13T18:55:37.598Z,9.07
2024-02-13T18:58:37.521Z,11.40
2024-02-13T19:01:38.197Z,10.00
2024-02-13T19:04:37.592Z,9.13
2024-02-13T19:13:37.386Z,8.67
2024-02-13T19:19:38.281Z,8.87
2024-02-13T19:22:37.471Z,10.20
2024-02-13T19:25:37.436Z,10.33
2024-02-13T19:40:38.183Z,8.80
2024-02-13T19:43:37.565Z,9.00
2024-02-13T19:46:37.805Z,9.73
2024-02-13T19:58:37.521Z,10.47
2024-02-13T20:01:38.155Z,10.53
2024-02-13T20:04:37.991Z,9.33
2024-02-13T20:07:38.411Z,11.40
2024-02-13T20:10:37.551Z,8.87
2024-02-13T20:13:37.506Z,10.13
2024-02-13T20:16:39.343Z,10.33
2024-02-13T20:19:38.664Z,9.53
2024-02-13T20:28:37.501Z,8.87
2024-02-13T20:31:38.058Z,10.40
2024-02-13T20:34:41.029Z,9.93
2024-02-13T20:37:38.147Z,10.53
2024-02-13T20:40:39.852Z,9.27
2024-02-13T20:43:37.344Z,8.53
2024-02-13T20:49:38.134Z,8.73
2024-02-13T20:52:37.651Z,10.13
2024-02-13T20:55:37.892Z,10.67
2024-02-13T20:58:39.794Z,11.13
2024-02-13T21:01:37.900Z,9.20
2024-02-13T21:04:38.094Z,8.47
2024-02-13T21:07:37.902Z,9.60
2024-02-13T21:10:37.546Z,10.53
2024-02-13T21:13:37.499Z,9.80
2024-02-13T21:19:38.416Z,9.13
2024-02-13T21:22:37.634Z,8.93
2024-02-13T21:25:37.584Z,9.80
2024-02-13T21:28:37.497Z,10.33
2024-02-13T21:31:37.989Z,9.13
2024-02-13T21:49:38.462Z,8.40
2024-02-13T21:52:37.776Z,8.27
2024-02-13T21:55:37.536Z,8.40
2024-02-13T21:58:37.701Z,8.00
2024-02-13T22:01:37.942Z,8.47
2024-02-13T22:04:37.867Z,8.67
2024-02-13T22:07:37.999Z,7.93
2024-02-13T22:10:37.812Z,8.87
2024-02-13T22:13:37.693Z,9.00
2024-02-13T22:16:37.725Z,9.07
2024-02-13T22:19:38.753Z,9.00
2024-02-13T22:22:38.057Z,9.40
2024-02-13T22:25:37.527Z,11.13
2024-02-13T22:28:37.409Z,15.67
2024-02-13T22:31:37.757Z,10.47
2024-02-13T22:43:37.389Z,7.53
2024-02-13T22:46:41.931Z,7.87
2024-02-13T23:04:38.154Z,7.93
2024-02-13T23:07:38.109Z,9.00
2024-02-13T23:10:37.892Z,8.67
2024-02-13T23:19:38.328Z,9.60
2024-02-13T23:22:37.573Z,8.40
2024-02-13T23:25:37.515Z,8.47
2024-02-13T23:28:43.826Z,8.73
2024-02-13T23:31:37.670Z,8.07
2024-02-13T23:34:39.370Z,8.00
2024-02-13T23:37:37.748Z,8.73
2024-02-13T23:40:37.826Z,8.20
2024-02-13T23:43:37.711Z,7.80
2024-02-13T23:46:37.605Z,8.33
2024-02-13T23:49:38.399Z,6.93
2024-02-13T23:52:37.615Z,7.47
2024-02-13T23:55:37.737Z,7.53
2024-02-13T23:58:37.618Z,8.27
